Time;durP1;ratioP1;P1;durP2;ratioP2;P2;SDS_P1;SDS_P2;PMS_P1;PMS_P2;Temp;Humidity;BMP_temperature;BMP_pressure;BME280_temperature;BME280_humidity;BME280_pressure;Samples;Min_cycle;Max_cycle;Signal;HPM_P1;HPM_P2
2021/04/21 00:00:18;;;;;;;24.40;13.82;;;9.30;99.90;;;;;;5044475;28;20061;-70
2021/04/21 00:02:49;;;;;;;22.42;13.15;;;9.10;99.90;;;;;;5043497;28;20055;-70
2021/04/21 00:05:17;;;;;;;25.33;12.45;;;9.20;99.90;;;;;;5045063;28;20083;-70
2021/04/21 00:07:44;;;;;;;22.02;12.43;;;9.10;99.90;;;;;;5043017;28;20048;-70
2021/04/21 00:10:13;;;;;;;20.40;10.30;;;8.80;99.90;;;;;;5043330;28;20048;-70
2021/04/21 00:12:40;;;;;;;19.33;11.63;;;9.00;99.90;;;;;;5045557;28;20063;-70
2021/04/21 00:15:10;;;;;;;20.63;11.60;;;9.00;99.90;;;;;;5043366;28;20085;-70
2021/04/21 00:17:40;;;;;;;22.42;12.52;;;9.00;99.90;;;;;;5043820;28;20505;-70
2021/04/21 00:20:08;;;;;;;21.52;12.23;;;9.00;99.90;;;;;;5045520;28;20931;-70
2021/04/21 00:22:37;;;;;;;19.88;12.40;;;9.00;99.90;;;;;;5046907;28;20139;-70
2021/04/21 00:25:05;;;;;;;20.38;12.23;;;9.00;99.90;;;;;;5044341;28;20056;-70
2021/04/21 00:27:33;;;;;;;18.15;11.52;;;9.00;99.90;;;;;;5043202;28;20079;-70
2021/04/21 00:30:03;;;;;;;21.90;11.63;;;8.90;99.90;;;;;;5043812;28;20095;-70
2021/04/21 00:32:33;;;;;;;22.08;11.32;;;8.80;99.90;;;;;;5046198;28;20044;-70
2021/04/21 00:35:00;;;;;;;19.70;11.13;;;8.80;99.90;;;;;;5042021;28;20084;-70
2021/04/21 00:37:29;;;;;;;18.95;11.65;;;8.60;99.90;;;;;;5043154;28;20067;-70
2021/04/21 00:39:59;;;;;;;22.00;12.82;;;8.60;99.90;;;;;;5044323;28;20564;-70
2021/04/21 00:42:30;;;;;;;24.95;13.25;;;8.60;99.90;;;;;;5044134;28;20102;-69
2021/04/21 00:45:04;;;;;;;23.25;12.60;;;8.50;99.90;;;;;;5044924;28;20527;-70
2021/04/21 00:47:39;;;;;;;20.08;11.43;;;8.40;99.90;;;;;;5041285;28;20052;-70
2021/04/21 00:50:11;;;;;;;22.42;11.68;;;8.30;99.90;;;;;;5046636;28;20142;-70
2021/04/21 00:52:47;;;;;;;23.33;12.73;;;8.20;99.90;;;;;;5044363;28;20052;-70
2021/04/21 00:55:20;;;;;;;22.42;11.85;;;8.20;99.90;;;;;;5046928;28;20056;-70
2021/04/21 00:57:57;;;;;;;23.52;12.43;;;8.30;99.90;;;;;;5046286;28;20055;-70
2021/04/21 01:00:28;;;;;;;19.30;12.35;;;8.20;99.90;;;;;;5042489;28;20056;-69
2021/04/21 01:02:58;;;;;;;21.67;13.30;;;8.20;99.90;;;;;;5046029;28;20094;-71
2021/04/21 01:05:27;;;;;;;22.30;12.63;;;8.20;99.90;;;;;;5040716;28;20161;-70
2021/04/21 01:07:57;;;;;;;24.63;13.60;;;8.30;99.90;;;;;;5040880;28;20098;-70
2021/04/21 01:10:28;;;;;;;22.75;13.07;;;8.20;99.90;;;;;;5044864;28;20043;-70
2021/04/21 01:12:59;;;;;;;21.02;12.10;;;8.20;99.90;;;;;;5044692;28;20098;-70
2021/04/21 01:15:27;;;;;;;21.90;12.10;;;8.30;99.90;;;;;;5045499;28;20084;-70
2021/04/21 01:17:56;;;;;;;24.95;13.45;;;8.30;99.90;;;;;;5042403;28;20082;-70
2021/04/21 01:20:31;;;;;;;20.38;12.50;;;8.20;99.90;;;;;;5044945;28;20075;-70
2021/04/21 01:23:16;;;;;;;24.50;12.27;;;8.20;99.90;;;;;;5043234;28;20218;-70
2021/04/21 01:25:56;;;;;;;26.00;13.57;;;8.20;99.90;;;;;;5045056;28;20071;-71
2021/04/21 01:28:26;;;;;;;24.88;12.70;;;8.20;99.90;;;;;;5043001;28;20118;-71
2021/04/21 01:30:55;;;;;;;24.63;13.55;;;8.10;99.90;;;;;;5043685;28;20056;-70
2021/04/21 01:33:24;;;;;;;22.83;13.00;;;8.10;99.90;;;;;;5044957;28;20084;-71
2021/04/21 01:35:56;;;;;;;25.98;14.10;;;8.10;99.90;;;;;;5050044;28;20104;-71
2021/04/21 01:38:25;;;;;;;24.00;13.38;;;8.10;99.90;;;;;;5041292;28;20162;-71
2021/04/21 01:40:53;;;;;;;20.48;11.50;;;8.10;99.90;;;;;;5043023;28;20061;-71
2021/04/21 01:43:24;;;;;;;23.15;13.18;;;8.00;99.90;;;;;;5034498;28;20055;-71
2021/04/21 01:45:55;;;;;;;29.75;13.32;;;7.80;99.90;;;;;;5038010;28;20602;-70
2021/04/21 01:48:24;;;;;;;21.63;11.88;;;7.80;99.90;;;;;;5043659;28;20050;-70
2021/04/21 01:50:52;;;;;;;22.85;12.48;;;7.90;99.90;;;;;;5043399;28;20539;-70
2021/04/21 01:53:35;;;;;;;21.70;12.50;;;8.00;99.90;;;;;;5042808;28;20052;-70
2021/04/21 01:56:06;;;;;;;24.67;12.65;;;7.80;99.90;;;;;;5044748;28;20098;-70
2021/04/21 01:58:43;;;;;;;23.67;13.05;;;7.80;99.90;;;;;;5040437;28;20471;-71
2021/04/21 02:01:15;;;;;;;25.63;13.23;;;7.80;99.90;;;;;;5042065;28;20048;-70
2021/04/21 02:03:48;;;;;;;22.10;13.43;;;7.60;99.90;;;;;;5040542;28;20090;-71
2021/04/21 02:06:46;;;;;;;30.17;13.85;;;7.60;99.90;;;;;;5043745;28;20092;-71
2021/04/21 02:09:29;;;;;;;22.95;12.95;;;7.60;99.90;;;;;;5042772;28;20085;-71
2021/04/21 02:12:07;;;;;;;21.17;11.63;;;7.80;99.90;;;;;;5044846;28;20057;-70
2021/04/21 02:14:41;;;;;;;21.65;12.27;;;7.90;99.90;;;;;;5044356;28;20090;-70
2021/04/21 02:17:20;;;;;;;20.40;11.70;;;7.90;99.90;;;;;;5039223;28;20056;-70
2021/04/21 02:19:53;;;;;;;24.45;12.85;;;7.90;99.90;;;;;;5039108;28;20088;-70
2021/04/21 02:22:33;;;;;;;21.77;12.15;;;7.80;99.90;;;;;;5042428;28;20048;-70
2021/04/21 02:25:08;;;;;;;24.58;12.82;;;7.80;99.90;;;;;;5043114;28;20052;-70
2021/04/21 02:27:45;;;;;;;22.15;13.18;;;7.80;99.90;;;;;;5041559;28;20056;-70
2021/04/21 02:30:19;;;;;;;23.02;13.45;;;7.50;99.90;;;;;;5042290;28;20525;-70
2021/04/21 02:32:56;;;;;;;19.73;13.05;;;7.50;99.90;;;;;;5045048;28;20168;-71
2021/04/21 02:35:29;;;;;;;22.10;12.90;;;7.40;99.90;;;;;;5046719;28;20071;-71
2021/04/21 02:38:06;;;;;;;22.75;14.32;;;7.40;99.90;;;;;;5045154;28;20060;-71
2021/04/21 02:40:53;;;;;;;30.83;15.02;;;7.30;99.90;;;;;;5043938;28;20143;-71
2021/04/21 02:43:24;;;;;;;31.35;15.25;;;7.30;99.90;;;;;;5046745;28;20494;-71
2021/04/21 02:45:59;;;;;;;32.83;16.95;;;7.30;99.90;;;;;;5045117;28;20272;-71
2021/04/21 02:48:42;;;;;;;43.67;18.70;;;7.40;99.90;;;;;;5042614;28;20064;-71
2021/04/21 02:51:14;;;;;;;53.97;21.83;;;7.40;99.90;;;;;;5045387;28;20054;-70
2021/04/21 02:53:47;;;;;;;39.38;18.60;;;7.20;99.90;;;;;;5047256;28;20052;-70
2021/04/21 02:56:22;;;;;;;50.65;19.02;;;7.20;99.90;;;;;;5046765;28;20067;-71
2021/04/21 02:58:59;;;;;;;39.07;17.23;;;7.20;99.90;;;;;;5046053;28;20052;-70
2021/04/21 03:01:38;;;;;;;40.58;18.17;;;7.10;99.90;;;;;;5048262;28;20501;-70
2021/04/21 03:04:10;;;;;;;27.97;15.13;;;7.00;99.90;;;;;;5044583;28;20462;-71
2021/04/21 03:06:41;;;;;;;30.70;15.03;;;7.10;99.90;;;;;;5047144;28;20086;-70
2021/04/21 03:09:12;;;;;;;24.52;13.93;;;7.00;99.90;;;;;;5044944;28;20518;-70
2021/04/21 03:11:40;;;;;;;34.92;16.52;;;7.00;99.90;;;;;;5047655;28;20052;-71
2021/04/21 03:14:11;;;;;;;24.23;14.43;;;7.10;99.90;;;;;;5046957;28;20056;-71
2021/04/21 03:16:42;;;;;;;31.53;15.70;;;7.10;99.90;;;;;;5046746;28;20091;-71
2021/04/21 03:19:11;;;;;;;29.83;15.50;;;7.10;99.90;;;;;;5042046;28;20117;-71
2021/04/21 03:21:43;;;;;;;28.20;15.23;;;6.90;99.90;;;;;;5044263;28;20052;-71
2021/04/21 03:24:14;;;;;;;30.40;15.77;;;6.90;99.90;;;;;;5043312;28;21759;-71
2021/04/21 03:26:46;;;;;;;27.90;15.73;;;6.90;99.90;;;;;;5044653;28;20140;-71
2021/04/21 03:29:17;;;;;;;25.47;15.40;;;7.00;99.90;;;;;;5043680;28;20048;-70
2021/04/21 03:31:46;;;;;;;26.00;15.23;;;7.00;99.90;;;;;;5045079;28;20052;-71
2021/04/21 03:34:17;;;;;;;26.23;14.10;;;7.10;99.90;;;;;;5045722;28;20067;-71
2021/04/21 03:36:44;;;;;;;24.83;14.60;;;7.00;99.90;;;;;;5040283;28;20122;-71
2021/04/21 03:39:11;;;;;;;21.23;13.97;;;7.10;99.90;;;;;;5038697;28;20083;-71
2021/04/21 03:41:39;;;;;;;25.10;13.57;;;7.10;99.90;;;;;;5042509;28;20455;-71
2021/04/21 03:44:06;;;;;;;23.73;14.20;;;7.10;99.90;;;;;;5043232;28;20083;-71
2021/04/21 03:46:34;;;;;;;23.00;14.23;;;7.10;99.90;;;;;;5045759;28;20479;-71
2021/04/21 03:49:02;;;;;;;22.33;14.10;;;7.10;99.90;;;;;;5042728;28;20087;-71
2021/04/21 03:51:29;;;;;;;31.47;16.17;;;7.00;99.90;;;;;;5037161;28;20067;-71
2021/04/21 03:53:56;;;;;;;26.50;14.80;;;6.90;99.90;;;;;;5041358;28;20137;-70
2021/04/21 03:56:24;;;;;;;26.07;14.53;;;6.80;99.90;;;;;;5046946;28;20094;-71
2021/04/21 03:58:54;;;;;;;25.70;15.63;;;6.80;99.90;;;;;;5042620;28;20059;-71
2021/04/21 04:01:22;;;;;;;28.30;15.63;;;6.80;99.90;;;;;;5044140;28;20091;-71
2021/04/21 04:03:51;;;;;;;33.57;17.30;;;6.80;99.90;;;;;;5044177;28;20059;-71
2021/04/21 04:06:23;;;;;;;27.27;15.50;;;6.80;99.90;;;;;;5044645;28;20059;-71
2021/04/21 04:08:51;;;;;;;24.87;14.67;;;6.80;99.90;;;;;;5043819;28;20087;-71
2021/04/21 04:11:26;;;;;;;26.13;14.60;;;6.90;99.90;;;;;;5044479;28;20080;-71
2021/04/21 04:13:57;;;;;;;26.80;14.30;;;6.80;99.90;;;;;;5043801;28;20088;-71
2021/04/21 04:16:24;;;;;;;24.70;14.43;;;6.70;99.90;;;;;;5046355;28;20686;-71
2021/04/21 04:18:54;;;;;;;24.17;12.97;;;6.70;99.90;;;;;;5043477;28;20063;-70
2021/04/21 04:21:27;;;;;;;20.57;13.40;;;6.70;99.90;;;;;;5046348;28;20055;-71
2021/04/21 04:23:56;;;;;;;22.00;12.93;;;6.70;99.90;;;;;;5046738;28;21076;-71
2021/04/21 04:26:26;;;;;;;21.73;13.53;;;6.70;99.90;;;;;;5044807;28;20562;-71
2021/04/21 04:28:53;;;;;;;20.90;13.07;;;6.70;99.90;;;;;;5046547;28;20052;-71
2021/04/21 04:31:21;;;;;;;19.43;12.70;;;6.70;99.90;;;;;;5047531;28;20056;-71
2021/04/21 04:33:50;;;;;;;20.83;13.27;;;6.70;99.90;;;;;;5045521;28;20587;-71
2021/04/21 04:36:17;;;;;;;19.53;11.93;;;6.70;99.90;;;;;;5045849;28;20170;-71
2021/04/21 04:38:45;;;;;;;22.20;12.30;;;6.60;99.90;;;;;;5043248;28;20128;-70
2021/04/21 04:41:12;;;;;;;19.23;12.20;;;6.60;99.90;;;;;;5044148;28;20052;-71
2021/04/21 04:43:42;;;;;;;21.57;12.10;;;6.60;99.90;;;;;;5048155;28;20098;-70
2021/04/21 04:46:12;;;;;;;20.37;12.43;;;6.50;99.90;;;;;;5044597;28;20098;-70
2021/04/21 04:48:44;;;;;;;19.60;12.73;;;6.50;99.90;;;;;;5044557;28;20055;-71
2021/04/21 04:51:12;;;;;;;21.53;13.13;;;6.60;99.90;;;;;;5045498;28;20055;-71
2021/04/21 04:53:40;;;;;;;21.00;12.90;;;6.60;99.90;;;;;;5044505;28;20185;-71
2021/04/21 04:56:08;;;;;;;22.17;14.67;;;6.60;99.90;;;;;;5044771;28;20063;-70
2021/04/21 04:58:39;;;;;;;25.17;14.83;;;6.60;99.90;;;;;;5044258;28;20051;-70
2021/04/21 05:01:07;;;;;;;24.27;15.10;;;6.60;99.90;;;;;;5044787;28;20142;-70
2021/04/21 05:03:40;;;;;;;31.73;15.17;;;6.70;99.90;;;;;;5045391;28;20060;-71
2021/04/21 05:06:09;;;;;;;25.00;14.87;;;6.60;99.90;;;;;;5047298;28;20496;-71
2021/04/21 05:08:44;;;;;;;37.00;16.03;;;6.60;99.90;;;;;;5042925;28;20059;-71
2021/04/21 05:11:13;;;;;;;29.70;14.60;;;6.60;99.90;;;;;;5044279;28;20068;-71
2021/04/21 05:13:44;;;;;;;26.23;15.43;;;6.60;99.90;;;;;;5042949;28;20084;-72
2021/04/21 05:16:49;;;;;;;29.47;15.97;;;6.60;99.90;;;;;;5040321;28;20659;-71
2021/04/21 05:19:56;;;;;;;34.87;17.23;;;6.70;99.90;;;;;;5042512;28;20057;-71
2021/04/21 05:23:19;;;;;;;44.13;18.67;;;6.60;99.90;;;;;;5022805;28;20071;-70
2021/04/21 05:26:37;;;;;;;51.13;18.03;;;6.60;99.90;;;;;;5057729;28;22148;-71
2021/04/21 05:29:38;;;;;;;31.93;17.93;;;6.70;99.90;;;;;;5026218;28;20055;-70
2021/04/21 05:32:42;;;;;;;33.83;17.17;;;6.70;99.90;;;;;;5056500;28;20052;-71
2021/04/21 05:36:01;;;;;;;32.87;17.67;;;6.80;99.90;;;;;;5042800;28;20135;-70
2021/04/21 05:39:26;;;;;;;32.97;16.92;;;6.90;99.90;;;;;;5044062;28;20087;-71
2021/04/21 05:42:47;;;;;;;29.40;14.60;;;6.90;99.90;;;;;;4958283;28;20254;-71
2021/04/21 05:45:45;;;;;;;27.15;15.60;;;7.20;99.90;;;;;;5045869;28;20059;-71
2021/04/21 05:48:58;;;;;;;26.80;15.60;;;7.30;99.90;;;;;;5040775;28;20048;-71
2021/04/21 05:51:51;;;;;;;29.03;16.27;;;7.30;99.90;;;;;;5009081;28;20428;-71
2021/04/21 05:55:02;;;;;;;28.10;15.27;;;7.20;99.90;;;;;;5041176;28;20110;-71
2021/04/21 05:57:57;;;;;;;27.45;15.02;;;7.30;99.90;;;;;;5037568;28;20379;-72
2021/04/21 06:00:57;;;;;;;30.93;15.90;;;7.20;99.90;;;;;;5043147;28;20056;-71
2021/04/21 06:03:24;;;;;;;28.90;16.37;;;7.00;99.90;;;;;;5044882;28;20056;-71
2021/04/21 06:05:51;;;;;;;25.70;16.10;;;7.20;99.90;;;;;;5046305;28;20144;-71
2021/04/21 06:08:17;;;;;;;;;;;7.20;99.90;;;;;;5046922;28;20099;-71
2021/04/21 06:10:43;;;;;;;25.55;15.93;;;7.30;99.90;;;;;;5049180;28;19978;-71
2021/04/21 06:13:11;;;;;;;;;;;7.60;99.90;;;;;;5047626;28;20056;-71
2021/04/21 06:15:39;;;;;;;;;;;7.70;99.90;;;;;;5048011;28;20705;-71
2021/04/21 06:18:08;;;;;;;26.20;15.05;;;7.80;99.90;;;;;;5045690;28;19994;-71
2021/04/21 06:20:37;;;;;;;29.25;15.38;;;7.90;99.90;;;;;;5049276;28;20084;-71
2021/04/21 06:23:07;;;;;;;27.38;14.85;;;8.00;99.90;;;;;;5043296;28;20055;-71
2021/04/21 06:25:34;;;;;;;24.52;15.68;;;8.00;99.90;;;;;;5049448;28;20051;-70
2021/04/21 06:28:12;;;;;;;26.25;15.48;;;8.10;99.90;;;;;;5046083;28;20084;-71
2021/04/21 06:30:40;;;;;;;25.30;14.95;;;8.00;99.90;;;;;;5042636;28;20094;-71
2021/04/21 06:33:08;;;;;;;24.98;15.32;;;8.00;99.90;;;;;;5037645;28;20049;-71
2021/04/21 06:35:35;;;;;;;26.98;16.13;;;8.00;99.90;;;;;;5041034;28;20121;-71
2021/04/21 06:38:02;;;;;;;25.80;15.93;;;8.00;99.90;;;;;;5042874;28;20052;-71
2021/04/21 06:40:31;;;;;;;32.97;17.90;;;8.20;99.90;;;;;;5047010;28;20044;-71
2021/04/21 06:42:59;;;;;;;32.33;18.27;;;7.90;99.90;;;;;;5046058;28;20119;-71
2021/04/21 06:45:27;;;;;;;27.58;17.10;;;8.20;99.90;;;;;;5043804;28;20048;-71
2021/04/21 06:47:56;;;;;;;27.83;16.90;;;8.30;99.90;;;;;;5042949;28;20051;-71
2021/04/21 06:50:28;;;;;;;26.90;15.55;;;8.40;99.90;;;;;;5044131;28;20075;-71
2021/04/21 06:53:00;;;;;;;22.52;14.32;;;8.60;99.90;;;;;;5048770;28;20053;-71
2021/04/21 06:55:30;;;;;;;26.65;15.20;;;8.70;99.90;;;;;;5045292;28;20058;-71
2021/04/21 06:57:57;;;;;;;25.00;15.43;;;8.80;99.90;;;;;;5046361;28;20056;-71
2021/04/21 07:00:26;;;;;;;24.45;15.50;;;8.60;99.90;;;;;;5047604;28;20056;-69
2021/04/21 07:02:56;;;;;;;24.25;15.40;;;8.60;99.90;;;;;;5047224;28;20045;-69
2021/04/21 07:05:30;;;;;;;30.52;16.50;;;8.50;99.90;;;;;;5046019;28;20159;-71
2021/04/21 07:08:07;;;;;;;24.42;15.07;;;8.70;99.90;;;;;;5045499;28;20137;-71
2021/04/21 07:10:35;;;;;;;25.48;15.32;;;8.90;99.90;;;;;;5050630;28;20053;-71
2021/04/21 07:13:03;;;;;;;24.02;14.73;;;9.00;99.90;;;;;;5046131;28;20496;-71
2021/04/21 07:15:34;;;;;;;26.00;14.98;;;9.20;99.90;;;;;;5046766;28;20499;-71
2021/04/21 07:18:03;;;;;;;30.17;16.00;;;9.40;99.90;;;;;;5042438;28;20139;-71
2021/04/21 07:20:30;;;;;;;21.85;13.95;;;9.50;99.90;;;;;;5041293;28;20135;-71
2021/04/21 07:22:57;;;;;;;19.13;12.85;;;9.60;99.90;;;;;;5040280;28;20047;-71
2021/04/21 07:25:24;;;;;;;26.00;14.27;;;9.90;99.90;;;;;;5048232;28;20048;-71
2021/04/21 07:27:54;;;;;;;24.52;14.48;;;10.10;99.90;;;;;;5052014;28;20049;-71
2021/04/21 07:30:28;;;;;;;28.95;14.93;;;10.20;99.90;;;;;;5056874;28;20048;-70
2021/04/21 07:32:55;;;;;;;27.75;14.23;;;10.30;99.90;;;;;;5053985;28;20099;-71
2021/04/21 07:35:25;;;;;;;25.27;13.55;;;10.20;99.90;;;;;;5053141;28;21327;-71
2021/04/21 07:37:54;;;;;;;23.92;13.98;;;10.40;99.90;;;;;;5056728;28;20476;-70
2021/04/21 07:40:24;;;;;;;23.30;13.85;;;10.60;99.90;;;;;;5057464;28;20056;-71
2021/04/21 07:42:52;;;;;;;23.23;13.80;;;10.60;99.90;;;;;;5052680;28;20080;-71
2021/04/21 07:45:21;;;;;;;22.75;13.90;;;10.50;99.90;;;;;;5052582;28;20485;-71
2021/04/21 07:47:48;;;;;;;22.88;14.18;;;10.70;99.90;;;;;;5052001;28;20347;-71
2021/04/21 07:50:14;;;;;;;21.38;13.02;;;10.90;99.90;;;;;;5053171;28;20160;-71
2021/04/21 07:52:42;;;;;;;20.63;12.35;;;11.30;99.90;;;;;;5040617;28;20052;-67
2021/04/21 07:55:11;;;;;;;21.75;12.07;;;11.60;99.90;;;;;;5045187;28;20906;-69
2021/04/21 07:57:38;;;;;;;19.95;11.68;;;11.90;99.90;;;;;;5039380;28;20048;-69
2021/04/21 08:00:08;;;;;;;18.45;11.35;;;12.10;99.90;;;;;;5045334;28;20087;-70
2021/04/21 08:02:35;;;;;;;18.60;11.98;;;12.30;99.90;;;;;;5045195;28;20048;-72
2021/04/21 08:05:07;;;;;;;20.33;12.93;;;12.60;99.90;;;;;;5045278;28;20094;-70
2021/04/21 08:07:39;;;;;;;22.85;13.60;;;12.80;99.90;;;;;;5043843;28;20135;-72
2021/04/21 08:10:21;;;;;;;21.88;13.57;;;12.90;99.90;;;;;;5043658;28;20075;-73
2021/04/21 08:12:47;;;;;;;28.52;14.60;;;13.30;99.90;;;;;;5046365;28;20047;-72
2021/04/21 08:15:14;;;;;;;;;;;13.50;99.90;;;;;;5046967;28;20130;-74
2021/04/21 08:17:51;;;;;;;22.63;13.05;;;13.70;99.90;;;;;;5044779;28;20009;-74
2021/04/21 08:20:24;;;;;;;25.15;13.32;;;14.10;99.90;;;;;;5046513;28;20662;-74
2021/04/21 08:22:55;;;;;;;26.70;12.82;;;14.30;99.90;;;;;;5043007;28;20052;-71
2021/04/21 08:25:22;;;;;;;20.80;12.68;;;14.70;99.90;;;;;;5045949;28;20084;-70
2021/04/21 08:27:49;;;;;;;22.42;11.30;;;15.00;99.90;;;;;;5042766;28;20155;-76
2021/04/21 08:30:17;;;;;;;20.80;11.35;;;15.40;99.90;;;;;;5043653;28;20052;-72
2021/04/21 08:32:44;;;;;;;17.85;10.65;;;16.00;99.90;;;;;;5047039;28;20424;-74
2021/04/21 08:35:12;;;;;;;14.60;10.00;;;16.50;99.90;;;;;;5046903;28;21404;-74
2021/04/21 08:37:39;;;;;;;12.98;9.18;;;17.20;99.90;;;;;;5044564;28;20097;-75
2021/04/21 08:40:07;;;;;;;16.88;9.80;;;18.00;99.90;;;;;;5043499;28;20052;-73
2021/04/21 08:42:38;;;;;;;17.77;9.95;;;18.50;99.90;;;;;;5043736;28;20131;-67
2021/04/21 08:45:06;;;;;;;14.30;8.05;;;19.30;99.90;;;;;;5043388;28;20051;-72
2021/04/21 08:47:33;;;;;;;14.88;9.07;;;20.10;99.90;;;;;;5040808;28;20083;-71
2021/04/21 08:50:00;;;;;;;25.80;9.70;;;20.50;99.90;;;;;;5043266;28;20118;-70
2021/04/21 08:52:32;;;;;;;16.10;9.10;;;20.50;99.90;;;;;;5044125;28;20159;-70
2021/04/21 08:54:59;;;;;;;13.68;9.55;;;20.50;99.90;;;;;;5045541;28;20079;-67
2021/04/21 08:57:26;;;;;;;13.70;9.18;;;20.40;99.90;;;;;;5043886;28;20110;-71
2021/04/21 08:59:55;;;;;;;17.17;9.30;;;20.50;99.90;;;;;;5040454;28;20084;-71
2021/04/21 09:02:21;;;;;;;20.55;8.43;;;20.50;99.90;;;;;;5042313;28;20048;-70
2021/04/21 09:04:48;;;;;;;15.82;7.90;;;20.70;99.90;;;;;;5043447;28;20456;-71
2021/04/21 09:07:15;;;;;;;13.10;7.88;;;20.90;99.90;;;;;;5040797;28;20106;-71
2021/04/21 09:09:42;;;;;;;13.65;7.75;;;21.70;99.70;;;;;;5041873;28;20048;-69
2021/04/21 09:12:09;;;;;;;13.15;6.38;;;22.20;97.60;;;;;;5038020;28;20122;-70
2021/04/21 09:14:36;;;;;;;11.00;7.55;;;22.80;95.60;;;;;;5041751;28;20122;-69
2021/04/21 09:17:03;;;;;;;12.20;7.68;;;23.80;94.30;;;;;;5042969;28;20138;-69
2021/04/21 09:19:30;;;;;;;13.70;7.43;;;23.80;91.80;;;;;;5041491;28;20445;-70
2021/04/21 09:22:06;;;;;;;14.07;7.32;;;24.80;90.20;;;;;;5042533;28;20072;-69
2021/04/21 09:24:36;;;;;;;9.80;7.18;;;25.20;87.20;;;;;;5039274;28;20080;-69
2021/04/21 09:27:30;;;;;;;11.52;7.78;;;25.60;84.80;;;;;;5050674;28;20461;-69
2021/04/21 09:30:15;;;;;;;11.73;8.07;;;25.70;80.40;;;;;;5049658;28;20044;-69
2021/04/21 09:32:46;;;;;;;11.50;7.57;;;25.60;79.40;;;;;;5053411;28;20055;-69
2021/04/21 09:35:21;;;;;;;12.00;7.50;;;25.90;76.80;;;;;;5049470;28;20080;-69
2021/04/21 09:37:47;;;;;;;13.63;7.22;;;26.60;75.00;;;;;;5048489;28;20581;-69
2021/04/21 09:40:15;;;;;;;10.88;7.07;;;27.00;71.60;;;;;;5051003;28;20048;-69
2021/04/21 09:42:41;;;;;;;11.93;7.80;;;27.10;68.80;;;;;;5052755;28;20086;-69
2021/04/21 09:45:09;;;;;;;12.55;8.20;;;27.50;68.20;;;;;;5054538;28;20457;-69
2021/04/21 09:47:35;;;;;;;14.30;8.05;;;27.70;66.40;;;;;;5055354;28;20455;-69
2021/04/21 09:50:03;;;;;;;9.38;7.10;;;28.20;64.10;;;;;;5053121;28;20055;-69
2021/04/21 09:52:30;;;;;;;13.77;7.75;;;28.50;62.90;;;;;;5055099;28;20552;-69
2021/04/21 09:54:58;;;;;;;13.63;7.45;;;28.30;60.10;;;;;;5053695;28;20044;-69
2021/04/21 09:57:33;;;;;;;11.43;7.38;;;28.40;59.50;;;;;;5052648;28;20206;-71
2021/04/21 10:00:03;;;;;;;10.68;7.15;;;27.90;57.60;;;;;;5051511;28;20135;-71
2021/04/21 10:02:34;;;;;;;12.63;7.70;;;28.20;56.80;;;;;;5054775;28;20513;-71
2021/04/21 10:05:24;;;;;;;17.20;7.80;;;28.00;56.50;;;;;;5053349;28;20064;-71
2021/04/21 10:08:17;;;;;;;11.05;6.53;;;28.70;55.30;;;;;;5055131;28;20052;-73
2021/04/21 10:10:45;;;;;;;11.57;7.88;;;29.00;55.30;;;;;;5054633;28;20504;-72
2021/04/21 10:13:14;;;;;;;16.77;7.65;;;29.00;54.70;;;;;;5052075;28;20051;-71
2021/04/21 10:15:41;;;;;;;12.77;7.75;;;27.80;54.90;;;;;;5057362;28;20077;-72
2021/04/21 10:18:09;;;;;;;13.40;7.70;;;27.40;55.00;;;;;;5050860;28;20445;-72
2021/04/21 10:20:36;;;;;;;11.20;7.70;;;27.50;55.60;;;;;;5052015;28;20048;-72
2021/04/21 10:23:05;;;;;;;14.05;7.95;;;28.00;56.50;;;;;;5056068;28;20056;-72
2021/04/21 10:25:31;;;;;;;11.35;8.00;;;28.50;56.20;;;;;;5056821;28;20477;-72
2021/04/21 10:27:59;;;;;;;12.23;8.40;;;28.30;56.70;;;;;;5047767;28;20147;-73
2021/04/21 10:30:26;;;;;;;16.70;9.35;;;27.60;57.00;;;;;;5054053;28;20045;-71
2021/04/21 10:32:53;;;;;;;14.65;9.50;;;26.90;56.80;;;;;;5055087;28;20852;-71
2021/04/21 10:35:19;;;;;;;13.38;8.68;;;26.10;58.40;;;;;;5057592;28;20043;-71
2021/04/21 10:37:47;;;;;;;16.52;9.30;;;25.40;57.50;;;;;;5053319;28;20087;-71
2021/04/21 10:40:25;;;;;;;15.07;9.60;;;25.20;57.50;;;;;;5057149;28;20044;-72
2021/04/21 10:42:54;;;;;;;16.33;10.00;;;26.00;56.60;;;;;;5050628;28;20128;-71
2021/04/21 10:45:24;;;;;;;15.32;8.90;;;26.80;56.10;;;;;;5056372;28;20087;-72
2021/04/21 10:47:52;;;;;;;16.83;10.82;;;27.50;55.10;;;;;;5056107;28;20048;-71
2021/04/21 10:50:45;;;;;;;19.20;11.35;;;25.50;54.20;;;;;;5055585;28;20052;-72
2021/04/21 10:53:44;;;;;;;14.10;10.85;;;24.80;55.00;;;;;;5033892;28;20167;-72
2021/04/21 10:56:22;;;;;;;16.30;9.57;;;24.40;55.80;;;;;;5059637;28;20052;-71
2021/04/21 10:58:50;;;;;;;14.07;9.43;;;24.00;58.50;;;;;;5057810;28;20135;-71
2021/04/21 11:01:30;;;;;;;15.70;10.77;;;23.90;60.70;;;;;;5057338;28;20450;-71
2021/04/21 11:03:57;;;;;;;16.63;9.77;;;22.40;63.60;;;;;;5053356;28;20079;-71
2021/04/21 11:06:47;;;;;;;17.25;11.18;;;22.20;64.00;;;;;;5055455;28;20049;-71
2021/04/21 11:09:16;;;;;;;20.95;9.73;;;21.50;64.40;;;;;;5054231;28;20053;-71
2021/04/21 11:11:46;;;;;;;18.10;10.13;;;21.90;64.10;;;;;;5053871;28;20151;-71
2021/04/21 11:14:16;;;;;;;20.77;10.35;;;22.50;60.60;;;;;;5058367;28;20052;-71
2021/04/21 11:16:44;;;;;;;21.75;10.93;;;23.50;59.60;;;;;;5056128;28;20167;-72
2021/04/21 11:19:27;;;;;;;15.63;9.73;;;25.10;58.10;;;;;;5055062;28;20059;-71
2021/04/21 11:22:35;;;;;;;13.80;9.63;;;25.50;56.50;;;;;;5053796;28;20056;-71
2021/04/21 11:25:23;;;;;;;14.05;9.80;;;26.40;55.80;;;;;;5054376;28;20048;-73
2021/04/21 11:27:52;;;;;;;17.00;8.60;;;26.60;54.00;;;;;;5041251;28;20464;-72
2021/04/21 11:31:00;;;;;;;14.85;7.75;;;27.10;54.00;;;;;;5049408;28;20141;-73
2021/04/21 11:33:57;;;;;;;13.55;9.52;;;27.10;53.50;;;;;;5052754;28;20070;-72
2021/04/21 11:36:55;;;;;;;15.95;10.10;;;26.00;55.20;;;;;;5050998;28;20568;-71
2021/04/21 11:39:52;;;;;;;23.10;11.65;;;24.40;57.50;;;;;;5047581;28;20855;-72
2021/04/21 11:42:22;;;;;;;14.32;8.70;;;23.60;61.00;;;;;;5044912;28;20782;-71
2021/04/21 11:45:01;;;;;;;12.35;7.97;;;22.80;59.80;;;;;;5042579;28;20060;-71
2021/04/21 11:47:36;;;;;;;12.70;7.70;;;22.10;59.40;;;;;;5041834;28;20131;-71
2021/04/21 11:50:08;;;;;;;13.57;7.88;;;21.50;59.40;;;;;;5043177;28;20080;-74
2021/04/21 11:52:57;;;;;;;11.10;6.97;;;21.00;60.20;;;;;;5047832;28;20153;-69
2021/04/21 11:55:32;;;;;;;12.73;6.90;;;20.70;60.10;;;;;;5046264;28;20056;-72
2021/04/21 11:58:00;;;;;;;13.07;7.45;;;20.20;62.60;;;;;;5043790;28;20533;-74
2021/04/21 12:00:34;;;;;;;13.38;8.38;;;20.00;63.90;;;;;;5053302;28;21020;-71
2021/04/21 12:03:02;;;;;;;18.42;7.97;;;19.90;64.90;;;;;;5050692;28;20082;-75
2021/04/21 12:05:31;;;;;;;13.48;7.70;;;19.80;64.30;;;;;;5049322;28;20715;-73
2021/04/21 12:07:59;;;;;;;14.05;8.15;;;19.60;64.60;;;;;;5048762;28;20178;-71
2021/04/21 12:10:30;;;;;;;13.10;7.88;;;19.40;64.90;;;;;;5049263;28;20052;-70
2021/04/21 12:13:30;;;;;;;14.30;8.57;;;19.70;67.20;;;;;;5048176;28;20052;-70
2021/04/21 12:16:07;;;;;;;13.20;7.65;;;20.10;68.10;;;;;;5047303;28;20047;-71
2021/04/21 12:18:36;;;;;;;13.07;8.40;;;20.60;67.70;;;;;;5047648;28;20066;-74
2021/04/21 12:21:05;;;;;;;17.98;8.80;;;20.30;67.00;;;;;;5047432;28;20072;-73
2021/04/21 12:23:35;;;;;;;14.13;9.07;;;20.40;67.40;;;;;;5047170;28;20044;-72
2021/04/21 12:26:03;;;;;;;17.13;9.32;;;20.40;67.30;;;;;;5048397;28;20490;-71
2021/04/21 12:28:42;;;;;;;12.00;7.07;;;20.40;66.10;;;;;;5046843;28;20079;-72
2021/04/21 12:31:09;;;;;;;21.27;6.68;;;20.50;63.60;;;;;;5046842;28;20056;-71
2021/04/21 12:33:36;;;;;;;14.10;5.90;;;19.80;64.20;;;;;;5046784;28;20131;-71
2021/04/21 12:36:02;;;;;;;10.65;6.28;;;19.10;66.70;;;;;;5045498;28;20044;-71
2021/04/21 12:38:32;;;;;;;10.95;6.90;;;19.50;68.10;;;;;;5048652;28;20079;-71
2021/04/21 12:41:01;;;;;;;16.38;5.78;;;20.60;67.40;;;;;;5045083;28;20048;-71
2021/04/21 12:43:29;;;;;;;7.97;4.90;;;21.40;64.70;;;;;;5046613;28;20079;-73
2021/04/21 12:46:16;;;;;;;10.65;5.45;;;21.60;62.80;;;;;;5044905;28;20040;-71
2021/04/21 12:48:50;;;;;;;10.48;4.80;;;21.90;62.70;;;;;;5045172;28;20114;-71
2021/04/21 12:51:20;;;;;;;19.17;5.13;;;22.30;61.50;;;;;;5048462;28;20867;-73
2021/04/21 12:53:47;;;;;;;22.80;5.15;;;22.60;61.60;;;;;;5043204;28;20505;-71
2021/04/21 12:56:14;;;;;;;8.02;4.03;;;22.50;59.40;;;;;;5043532;28;20106;-73
2021/04/21 12:58:43;;;;;;;8.52;4.40;;;22.40;59.10;;;;;;5044101;28;20082;-72
2021/04/21 13:01:13;;;;;;;8.05;4.00;;;22.10;59.80;;;;;;5044188;28;20056;-73
2021/04/21 13:03:54;;;;;;;8.50;3.70;;;21.20;60.10;;;;;;5044841;28;20064;-72
2021/04/21 13:06:37;;;;;;;9.65;3.35;;;20.10;62.20;;;;;;5046106;28;20090;-73
2021/04/21 13:09:07;;;;;;;12.73;3.60;;;19.80;62.40;;;;;;5042032;28;20048;-71